createdAt,value
2022-10-31T00:01:28.048Z,19.92
2022-10-31T00:03:55.653Z,21.67
2022-10-31T00:06:24.495Z,22.90
2022-10-31T00:09:01.104Z,20.10
2022-10-31T00:11:28.921Z,18.63
2022-10-31T00:13:56.159Z,20.70
2022-10-31T00:16:25.037Z,19.42
2022-10-31T00:18:54.003Z,17.55
2022-10-31T00:21:21.658Z,18.63
2022-10-31T00:23:49.825Z,18.92
2022-10-31T00:26:17.331Z,20.95
2022-10-31T00:28:44.713Z,20.08
2022-10-31T00:31:13.927Z,21.08
2022-10-31T00:33:42.236Z,18.05
2022-10-31T00:36:13.751Z,20.92
2022-10-31T00:38:42.030Z,18.70
2022-10-31T00:41:09.219Z,19.42
2022-10-31T00:43:36.445Z,16.45
2022-10-31T00:46:03.742Z,19.48
2022-10-31T00:48:31.207Z,18.90
2022-10-31T00:50:58.575Z,17.45
2022-10-31T00:53:25.969Z,17.23
2022-10-31T00:55:53.247Z,21.05
2022-10-31T00:58:20.631Z,16.10
2022-10-31T01:00:56.373Z,19.95
2022-10-31T01:03:30.316Z,17.70
2022-10-31T01:06:12.680Z,18.60
2022-10-31T01:08:40.979Z,16.70
2022-10-31T01:11:14.237Z,18.67
2022-10-31T01:13:42.636Z,16.42
2022-10-31T01:16:12.451Z,21.00
2022-10-31T01:18:39.997Z,20.05
2022-10-31T01:21:16.742Z,21.40
2022-10-31T01:23:44.100Z,21.55
2022-10-31T01:26:16.967Z,18.55
2022-10-31T01:28:59.198Z,20.23
2022-10-31T01:31:32.473Z,18.40
2022-10-31T01:33:59.776Z,20.17
2022-10-31T01:36:31.216Z,18.48
2022-10-31T01:39:01.073Z,22.98
2022-10-31T01:41:31.536Z,18.52
2022-10-31T01:44:23.564Z,20.02
2022-10-31T01:46:59.976Z,20.05
2022-10-31T01:49:44.163Z,19.15
2022-10-31T01:52:18.199Z,20.00
2022-10-31T01:54:54.985Z,20.00
2022-10-31T01:57:23.053Z,25.23
2022-10-31T01:59:55.679Z,19.05
2022-10-31T02:02:22.818Z,23.48
2022-10-31T02:04:50.166Z,18.88
2022-10-31T02:07:26.923Z,18.90
2022-10-31T02:09:56.179Z,21.80
2022-10-31T02:14:52.028Z,24.35
2022-10-31T02:17:18.964Z,20.20
2022-10-31T02:20:11.044Z,18.45
2022-10-31T02:22:47.654Z,18.77
2022-10-31T02:25:47.651Z,19.67
2022-10-31T02:28:45.754Z,19.73
2022-10-31T02:31:43.584Z,20.90
2022-10-31T02:34:40.400Z,21.02
2022-10-31T02:37:28.998Z,24.08
2022-10-31T02:40:00.350Z,21.73
2022-10-31T02:42:38.875Z,21.40
2022-10-31T02:45:32.059Z,19.05
2022-10-31T02:48:13.683Z,19.58
2022-10-31T02:50:46.308Z,19.48
2022-10-31T02:53:16.673Z,20.67
2022-10-31T02:55:51.154Z,26.38
2022-10-31T02:58:23.710Z,23.75
2022-10-31T03:00:52.159Z,27.42
2022-10-31T03:03:30.244Z,24.05
2022-10-31T03:06:04.635Z,22.85
2022-10-31T03:08:56.937Z,25.60
2022-10-31T03:11:27.843Z,19.00
2022-10-31T03:14:10.268Z,20.75
2022-10-31T03:16:49.639Z,23.02
2022-10-31T03:19:32.280Z,19.63
2022-10-31T03:22:08.898Z,25.38
2022-10-31T03:24:39.476Z,20.40
2022-10-31T03:27:11.056Z,23.27
2022-10-31T03:29:40.343Z,29.52
2022-10-31T03:32:14.774Z,24.90
2022-10-31T03:34:45.801Z,25.02
2022-10-31T03:37:17.951Z,26.85
2022-10-31T03:39:48.847Z,28.85
2022-10-31T03:42:24.782Z,21.88
2022-10-31T03:44:59.067Z,28.95
2022-10-31T03:47:27.785Z,26.40
2022-10-31T03:49:55.728Z,32.58
2022-10-31T03:52:34.963Z,29.40
2022-10-31T03:55:42.904Z,26.65
2022-10-31T03:58:14.463Z,25.40
2022-10-31T04:00:45.668Z,26.10
2022-10-31T04:03:22.106Z,25.85
2022-10-31T04:05:52.851Z,29.85
2022-10-31T04:08:25.217Z,26.67
2022-10-31T04:10:54.341Z,29.02
2022-10-31T04:13:27.170Z,29.05
2022-10-31T04:15:56.349Z,26.20
2022-10-31T04:18:24.937Z,27.48
2022-10-31T04:21:05.655Z,31.25
2022-10-31T04:23:34.429Z,30.40
2022-10-31T04:28:28.563Z,24.85
2022-10-31T04:30:55.933Z,21.67
2022-10-31T04:33:23.053Z,27.50
2022-10-31T04:35:50.430Z,27.17
2022-10-31T04:38:17.429Z,28.90
2022-10-31T04:40:46.416Z,28.70
2022-10-31T04:43:13.898Z,28.83
2022-10-31T04:45:41.212Z,28.00
2022-10-31T04:48:08.545Z,27.25
2022-10-31T04:50:38.060Z,26.80
2022-10-31T04:53:05.274Z,28.83
2022-10-31T04:55:33.085Z,29.92
2022-10-31T04:58:03.232Z,28.40
2022-10-31T05:00:31.218Z,30.92
2022-10-31T05:02:59.285Z,28.02
2022-10-31T05:05:32.193Z,28.35
2022-10-31T05:08:00.533Z,28.27
2022-10-31T05:10:29.878Z,30.48
2022-10-31T05:13:00.265Z,29.55
2022-10-31T05:15:32.531Z,28.98
2022-10-31T05:18:00.330Z,24.95
2022-10-31T05:20:30.283Z,27.75
2022-10-31T05:22:58.695Z,25.60
2022-10-31T05:25:28.667Z,28.17
2022-10-31T05:27:57.375Z,28.90
2022-10-31T05:30:28.401Z,26.17
2022-10-31T05:32:56.781Z,29.67
2022-10-31T05:35:32.749Z,26.33
2022-10-31T05:38:00.800Z,28.08
2022-10-31T05:40:28.950Z,26.77
2022-10-31T05:42:58.330Z,27.95
2022-10-31T05:45:25.820Z,27.25
2022-10-31T05:48:01.925Z,33.42
2022-10-31T05:53:04.437Z,28.75
2022-10-31T05:55:33.436Z,29.25
2022-10-31T05:58:00.974Z,30.27
2022-10-31T06:00:29.229Z,26.23
2022-10-31T06:03:05.494Z,29.90
2022-10-31T06:05:34.309Z,30.75
2022-10-31T06:08:02.277Z,33.15
2022-10-31T06:10:29.713Z,29.77
2022-10-31T06:12:57.339Z,25.63
2022-10-31T06:15:24.936Z,33.15
2022-10-31T06:18:00.259Z,29.92
2022-10-31T06:20:27.504Z,29.88
2022-10-31T06:22:54.916Z,40.47
2022-10-31T06:25:22.199Z,31.33
2022-10-31T06:27:50.024Z,35.08
2022-10-31T06:30:18.619Z,29.63
2022-10-31T06:32:46.072Z,30.63
2022-10-31T06:35:13.073Z,25.83
2022-10-31T06:37:40.402Z,31.10
2022-10-31T06:40:07.879Z,23.35
2022-10-31T06:42:35.207Z,30.73
2022-10-31T06:45:02.245Z,29.48
2022-10-31T06:47:29.673Z,32.30
2022-10-31T06:49:56.652Z,25.90
2022-10-31T06:52:25.572Z,29.63
2022-10-31T06:54:52.599Z,30.90
2022-10-31T06:57:19.918Z,27.98
2022-10-31T06:59:46.911Z,31.17
2022-10-31T07:02:14.302Z,30.70
2022-10-31T07:04:41.355Z,28.30
2022-10-31T07:07:12.832Z,28.17
2022-10-31T07:09:40.079Z,28.17
2022-10-31T07:12:09.329Z,30.40
2022-10-31T07:14:36.333Z,28.35
2022-10-31T07:17:18.952Z,28.08
2022-10-31T07:19:46.163Z,26.92
2022-10-31T07:22:13.225Z,27.10
2022-10-31T07:24:40.512Z,24.90
2022-10-31T07:27:07.457Z,36.80
2022-10-31T07:29:35.280Z,26.63
2022-10-31T07:32:02.938Z,24.60
2022-10-31T07:34:30.163Z,24.55
2022-10-31T07:36:57.553Z,23.65
2022-10-31T07:39:28.266Z,26.50
2022-10-31T07:42:21.710Z,22.05
2022-10-31T07:47:25.464Z,19.55
2022-10-31T07:49:53.252Z,21.92
2022-10-31T07:52:20.197Z,18.60
2022-10-31T07:54:47.484Z,23.05
2022-10-31T07:57:34.417Z,20.48
2022-10-31T08:00:02.332Z,20.00
2022-10-31T08:02:30.997Z,21.20
2022-10-31T08:05:01.462Z,22.10
2022-10-31T08:10:21.218Z,18.90
2022-10-31T08:12:49.410Z,23.45
2022-10-31T08:18:00.497Z,18.40
2022-10-31T08:20:31.077Z,22.10
2022-10-31T08:25:50.449Z,15.70
2022-10-31T08:28:18.624Z,18.08
2022-10-31T08:30:47.050Z,23.50
2022-10-31T08:33:19.116Z,15.25
2022-10-31T08:35:51.341Z,14.75
2022-10-31T08:38:19.071Z,12.10
2022-10-31T08:40:50.560Z,13.63
2022-10-31T08:43:20.920Z,12.70
2022-10-31T08:45:51.052Z,16.00
2022-10-31T08:48:20.387Z,12.02
2022-10-31T08:51:01.603Z,9.68
2022-10-31T08:53:29.861Z,12.40
2022-10-31T08:55:58.401Z,14.95
2022-10-31T08:58:39.922Z,12.27
2022-10-31T09:01:08.442Z,13.50
2022-10-31T09:03:48.267Z,10.25
2022-10-31T09:12:01.109Z,12.60
2022-10-31T09:14:32.372Z,9.55
2022-10-31T09:17:00.159Z,10.15
2022-10-31T09:19:27.974Z,8.52
2022-10-31T09:22:04.170Z,8.00
2022-10-31T09:24:33.894Z,9.43
2022-10-31T09:27:01.904Z,8.07
2022-10-31T09:29:29.204Z,10.82
2022-10-31T09:31:57.629Z,7.40
2022-10-31T09:34:24.878Z,8.30
2022-10-31T09:36:54.092Z,10.25
2022-10-31T09:39:21.614Z,8.63
2022-10-31T09:42:07.096Z,9.00
2022-10-31T09:44:51.717Z,9.65
2022-10-31T09:47:38.889Z,10.13
2022-10-31T09:50:21.226Z,11.63
2022-10-31T09:53:06.236Z,8.30
2022-10-31T09:55:41.451Z,9.65
2022-10-31T09:58:17.732Z,9.93
2022-10-31T10:00:51.786Z,8.93
2022-10-31T10:03:42.033Z,14.50
2022-10-31T10:06:25.757Z,9.45
2022-10-31T10:08:55.416Z,8.80
2022-10-31T10:11:49.106Z,14.50
2022-10-31T10:14:28.378Z,12.82
2022-10-31T10:17:34.226Z,11.98
2022-10-31T10:20:12.820Z,11.77
2022-10-31T10:23:18.090Z,9.07
2022-10-31T10:25:51.352Z,7.70
2022-10-31T10:28:50.330Z,11.02
2022-10-31T10:31:23.458Z,12.13
2022-10-31T10:34:03.077Z,9.75
2022-10-31T10:36:44.096Z,9.52
2022-10-31T10:39:46.823Z,7.00
2022-10-31T10:42:35.074Z,7.68
2022-10-31T10:45:36.171Z,12.88
2022-10-31T10:48:41.786Z,7.82
2022-10-31T10:54:44.173Z,9.93
2022-10-31T10:57:30.171Z,10.32
2022-10-31T11:00:01.282Z,7.53
2022-10-31T11:02:32.555Z,5.90
2022-10-31T11:05:02.953Z,11.70
2022-10-31T11:07:40.944Z,9.45
2022-10-31T11:10:16.833Z,9.77
2022-10-31T11:13:02.068Z,9.57
2022-10-31T11:15:37.794Z,11.20
2022-10-31T11:18:05.497Z,9.65
2022-10-31T11:20:37.155Z,10.35
2022-10-31T11:23:19.578Z,7.00
2022-10-31T11:26:19.665Z,7.88
2022-10-31T11:29:00.903Z,6.85
2022-10-31T11:31:28.612Z,8.63
2022-10-31T11:34:05.212Z,7.60
2022-10-31T11:36:37.278Z,7.13
2022-10-31T11:39:15.049Z,8.32
2022-10-31T11:44:30.214Z,8.05
2022-10-31T11:47:01.173Z,6.47
2022-10-31T11:49:54.287Z,10.00
2022-10-31T11:52:31.595Z,7.03
2022-10-31T11:55:13.954Z,6.15
2022-10-31T11:57:47.172Z,9.10
2022-10-31T12:00:35.509Z,7.85
2022-10-31T12:03:24.765Z,7.50
2022-10-31T12:06:02.811Z,8.02
2022-10-31T12:08:33.639Z,5.47
2022-10-31T12:11:12.909Z,8.23
2022-10-31T12:16:56.686Z,7.88
2022-10-31T12:20:06.352Z,3.97
2022-10-31T12:22:44.524Z,7.65
2022-10-31T12:25:19.434Z,6.95
2022-10-31T12:28:13.997Z,6.35
2022-10-31T12:31:02.483Z,8.65
2022-10-31T12:33:41.286Z,7.97
2022-10-31T12:36:33.187Z,6.25
2022-10-31T12:39:14.716Z,5.85
2022-10-31T12:41:54.339Z,5.03
2022-10-31T12:44:40.066Z,5.68
2022-10-31T12:47:32.484Z,10.05
2022-10-31T12:50:18.665Z,7.75
2022-10-31T12:53:02.412Z,8.52
2022-10-31T12:56:12.150Z,5.45
2022-10-31T12:59:01.940Z,9.45
2022-10-31T13:01:52.194Z,4.28
2022-10-31T13:05:04.801Z,10.38
2022-10-31T13:08:15.573Z,5.93
2022-10-31T13:11:10.575Z,9.30
2022-10-31T13:13:50.302Z,10.43
2022-10-31T13:16:20.780Z,4.35
2022-10-31T13:21:51.947Z,7.85
2022-10-31T13:24:42.090Z,4.70
2022-10-31T13:27:20.124Z,5.85
2022-10-31T13:30:00.210Z,5.18
2022-10-31T13:32:31.653Z,5.95
2022-10-31T13:35:00.897Z,6.97
2022-10-31T13:37:46.575Z,6.32
2022-10-31T13:40:34.404Z,7.93
2022-10-31T13:43:29.826Z,5.40
2022-10-31T13:45:58.615Z,7.03
2022-10-31T13:48:48.889Z,5.05
2022-10-31T13:51:30.987Z,4.35
2022-10-31T13:54:43.261Z,5.38
2022-10-31T13:57:33.073Z,4.00
2022-10-31T14:00:06.405Z,6.97
2022-10-31T14:02:37.019Z,5.65
2022-10-31T14:05:27.662Z,6.53
2022-10-31T14:07:59.564Z,7.45
2022-10-31T14:10:30.431Z,5.72
2022-10-31T14:13:15.096Z,6.18
2022-10-31T14:15:55.585Z,6.07
2022-10-31T14:18:32.469Z,8.85
2022-10-31T14:20:59.716Z,5.22
2022-10-31T14:23:41.577Z,6.15
2022-10-31T14:26:24.285Z,6.63
2022-10-31T14:28:53.213Z,10.80
2022-10-31T14:31:40.285Z,8.27
2022-10-31T14:34:25.980Z,8.65
2022-10-31T14:37:11.849Z,14.18
2022-10-31T14:39:55.257Z,7.45
2022-10-31T14:42:41.095Z,5.90
2022-10-31T14:45:11.359Z,4.82
2022-10-31T14:48:08.013Z,6.27
2022-10-31T14:50:47.016Z,8.45
2022-10-31T14:53:24.675Z,7.43
2022-10-31T14:55:55.256Z,5.40
2022-10-31T14:58:44.074Z,6.72
2022-10-31T15:01:34.605Z,13.13
2022-10-31T15:04:23.013Z,7.03
2022-10-31T15:07:24.957Z,9.32
2022-10-31T15:10:07.585Z,12.43
2022-10-31T15:12:40.847Z,6.70
2022-10-31T15:15:18.068Z,7.97
2022-10-31T15:17:59.058Z,9.07
2022-10-31T15:20:32.301Z,6.68
2022-10-31T15:23:00.982Z,9.20
2022-10-31T15:25:35.376Z,12.80
2022-10-31T15:28:24.481Z,11.20
2022-10-31T15:31:25.343Z,19.35
2022-10-31T15:36:27.639Z,10.85
2022-10-31T15:39:07.836Z,11.65
2022-10-31T15:41:54.230Z,11.38
2022-10-31T15:44:28.516Z,13.63
2022-10-31T15:47:07.677Z,12.85
2022-10-31T15:49:42.144Z,12.32
2022-10-31T15:52:27.736Z,8.82
2022-10-31T15:55:03.070Z,20.65
2022-10-31T15:57:31.393Z,23.70
2022-10-31T16:00:01.093Z,13.27
2022-10-31T16:02:29.032Z,14.13
2022-10-31T16:04:59.439Z,24.13
2022-10-31T16:07:27.083Z,14.57
2022-10-31T16:10:00.038Z,20.83
2022-10-31T16:12:38.906Z,10.80
2022-10-31T16:15:15.115Z,32.75
2022-10-31T16:17:46.817Z,15.85
2022-10-31T16:20:46.073Z,31.73
2022-10-31T16:23:34.574Z,26.75
2022-10-31T16:26:12.130Z,40.45
2022-10-31T16:28:40.354Z,29.27
2022-10-31T16:31:17.893Z,26.48
2022-10-31T16:33:45.228Z,28.17
2022-10-31T16:36:35.856Z,21.75
2022-10-31T16:39:06.445Z,21.90
2022-10-31T16:41:39.542Z,19.77
2022-10-31T16:44:16.084Z,23.40
2022-10-31T16:46:45.674Z,23.23
2022-10-31T16:49:12.961Z,21.92
2022-10-31T16:51:40.861Z,30.67
2022-10-31T16:54:11.380Z,41.08
2022-10-31T16:56:39.806Z,30.80
2022-10-31T16:59:16.024Z,31.45
2022-10-31T17:01:50.411Z,18.95
2022-10-31T17:04:17.555Z,29.52
2022-10-31T17:06:44.825Z,22.30
2022-10-31T17:09:12.471Z,23.23
2022-10-31T17:11:49.632Z,24.17
2022-10-31T17:14:19.206Z,28.98
2022-10-31T17:19:29.871Z,24.10
2022-10-31T17:22:04.076Z,19.17
2022-10-31T17:24:33.857Z,17.77
2022-10-31T17:27:01.163Z,25.73
2022-10-31T17:29:28.249Z,30.33
2022-10-31T17:31:58.485Z,38.10
2022-10-31T17:34:27.429Z,28.73
2022-10-31T17:36:54.846Z,25.58
2022-10-31T17:39:25.816Z,36.97
2022-10-31T17:41:53.645Z,25.38
2022-10-31T17:44:24.467Z,25.27
2022-10-31T17:46:54.639Z,33.75
2022-10-31T17:49:27.353Z,34.42
2022-10-31T17:51:58.101Z,33.50
2022-10-31T17:54:25.110Z,38.47
2022-10-31T17:56:58.042Z,35.28
2022-10-31T17:59:25.287Z,35.78
2022-10-31T18:01:54.436Z,44.80
2022-10-31T18:04:24.832Z,34.42
2022-10-31T18:07:02.293Z,35.35
2022-10-31T18:09:32.151Z,38.50
2022-10-31T18:12:00.284Z,37.85
2022-10-31T18:14:30.970Z,29.52
2022-10-31T18:16:59.753Z,28.35
2022-10-31T18:19:28.604Z,29.33
2022-10-31T18:21:56.215Z,35.20
2022-10-31T18:24:25.981Z,34.35
2022-10-31T18:27:04.730Z,38.15
2022-10-31T18:29:33.287Z,24.20
2022-10-31T18:32:08.281Z,27.63
2022-10-31T18:37:05.492Z,28.17
2022-10-31T18:39:33.383Z,25.73
2022-10-31T18:42:10.034Z,29.58
2022-10-31T18:44:38.559Z,22.08
2022-10-31T18:47:06.555Z,31.33
2022-10-31T18:49:34.631Z,22.90
2022-10-31T18:52:08.408Z,28.20
2022-10-31T18:54:40.698Z,25.23
2022-10-31T18:57:08.179Z,26.65
2022-10-31T18:59:35.162Z,33.20
2022-10-31T19:02:02.786Z,34.03
2022-10-31T19:04:30.302Z,31.98
2022-10-31T19:07:00.910Z,26.40
2022-10-31T19:09:33.937Z,24.98
2022-10-31T19:12:01.665Z,37.72
2022-10-31T19:14:28.762Z,28.05
2022-10-31T19:17:01.255Z,34.85
2022-10-31T19:19:29.849Z,27.70
2022-10-31T19:21:57.158Z,34.42
2022-10-31T19:24:33.051Z,30.85
2022-10-31T19:27:06.625Z,33.92
2022-10-31T19:29:33.634Z,34.35
2022-10-31T19:32:03.287Z,32.65
2022-10-31T19:34:31.616Z,40.45
2022-10-31T19:37:07.277Z,31.90
2022-10-31T19:39:37.648Z,35.40
2022-10-31T19:42:08.606Z,33.55
2022-10-31T19:44:42.561Z,35.53
2022-10-31T19:47:15.398Z,33.50
2022-10-31T19:49:42.433Z,30.15
2022-10-31T19:52:09.719Z,33.95
2022-10-31T19:54:36.780Z,35.45
2022-10-31T19:57:04.174Z,40.95
2022-10-31T19:59:33.999Z,42.17
2022-10-31T20:02:05.480Z,40.55
2022-10-31T20:09:49.260Z,21.52
2022-10-31T20:12:16.816Z,28.85
2022-10-31T20:14:43.860Z,30.83
2022-10-31T20:17:11.215Z,31.80
2022-10-31T20:19:40.911Z,30.95
2022-10-31T20:22:10.863Z,33.95
2022-10-31T20:24:38.062Z,33.95
2022-10-31T20:27:05.833Z,33.60
2022-10-31T20:29:42.070Z,26.92
2022-10-31T20:32:09.407Z,28.23
2022-10-31T20:34:36.504Z,30.83
2022-10-31T20:37:04.535Z,28.40
2022-10-31T20:39:34.564Z,32.70
2022-10-31T20:42:05.758Z,30.13
2022-10-31T20:44:33.092Z,40.88
2022-10-31T20:49:43.383Z,33.63
2022-10-31T20:52:11.093Z,31.60
2022-10-31T20:54:38.108Z,33.17
2022-10-31T20:57:05.423Z,34.17
2022-10-31T20:59:33.467Z,35.40
2022-10-31T21:04:41.845Z,29.60
2022-10-31T21:07:09.819Z,35.88
2022-10-31T21:09:37.447Z,40.72
2022-10-31T21:12:05.866Z,31.90
2022-10-31T21:14:33.397Z,31.50
2022-10-31T21:17:00.895Z,34.55
2022-10-31T21:19:27.875Z,32.28
2022-10-31T21:24:28.138Z,33.30
2022-10-31T21:26:55.575Z,28.50
2022-10-31T21:29:22.745Z,30.90
2022-10-31T21:31:50.331Z,45.92
2022-10-31T21:34:17.439Z,51.78
2022-10-31T21:36:47.295Z,36.80
2022-10-31T21:39:16.087Z,39.40
2022-10-31T21:41:44.996Z,28.70
2022-10-31T21:44:16.649Z,33.75
2022-10-31T21:46:45.942Z,39.22
2022-10-31T21:51:44.197Z,37.63
2022-10-31T21:54:28.258Z,41.50
2022-10-31T21:56:57.126Z,33.78
2022-10-31T21:59:25.256Z,38.72
2022-10-31T22:01:57.075Z,44.80
2022-10-31T22:04:24.563Z,45.42
2022-10-31T22:06:51.796Z,38.72
2022-10-31T22:09:20.195Z,51.72
2022-10-31T22:11:47.550Z,36.78
2022-10-31T22:14:17.690Z,42.85
2022-10-31T22:16:45.120Z,39.25
2022-10-31T22:19:13.996Z,37.70
2022-10-31T22:21:43.882Z,41.15
2022-10-31T22:24:12.668Z,46.97
2022-10-31T22:26:40.734Z,37.40
2022-10-31T22:29:15.759Z,40.72
2022-10-31T22:31:46.035Z,50.65
2022-10-31T22:34:16.402Z,45.40
2022-10-31T22:36:45.135Z,41.60
2022-10-31T22:39:13.624Z,48.97
2022-10-31T22:41:40.918Z,43.05
2022-10-31T22:44:07.943Z,40.47
2022-10-31T22:46:37.684Z,43.70
2022-10-31T22:49:11.871Z,48.97
2022-10-31T22:51:40.960Z,40.20
2022-10-31T22:54:14.193Z,41.03
2022-10-31T22:56:42.002Z,44.35
2022-10-31T22:59:12.331Z,38.67
2022-10-31T23:01:39.731Z,41.00
2022-10-31T23:04:06.889Z,39.72
2022-10-31T23:06:34.544Z,41.85
2022-10-31T23:09:03.548Z,42.63
2022-10-31T23:11:40.969Z,37.67
2022-10-31T23:14:20.665Z,38.22
2022-10-31T23:16:57.445Z,40.65
2022-10-31T23:19:29.917Z,45.80
2022-10-31T23:22:01.094Z,65.28
2022-10-31T23:24:44.518Z,54.10
2022-10-31T23:27:25.877Z,47.28
2022-10-31T23:29:55.710Z,46.75
2022-10-31T23:32:27.651Z,41.50
2022-10-31T23:35:01.065Z,42.75
2022-10-31T23:37:32.970Z,40.25
2022-10-31T23:39:59.927Z,96.72
2022-10-31T23:42:28.100Z,57.80
2022-10-31T23:44:55.633Z,49.47
2022-10-31T23:47:26.040Z,57.95
2022-10-31T23:49:55.706Z,37.15
2022-10-31T23:52:26.016Z,84.88
2022-10-31T23:54:53.217Z,41.00
2022-10-31T23:57:21.122Z,40.70
2022-10-31T23:59:48.260Z,37.53
